createdAt,value
2023-05-11T00:00:18.550Z,29.789
2023-05-11T00:05:17.284Z,29.791
2023-05-11T00:10:18.282Z,29.792
2023-05-11T00:15:17.586Z,29.795
2023-05-11T00:20:17.676Z,29.796
2023-05-11T00:25:17.300Z,29.796
2023-05-11T00:30:18.024Z,29.797
2023-05-11T00:35:17.519Z,29.800
2023-05-11T00:40:18.249Z,29.800
2023-05-11T00:45:17.448Z,29.800
2023-05-11T00:50:17.655Z,29.803
2023-05-11T00:55:18.092Z,29.805
2023-05-11T01:00:17.833Z,29.806
2023-05-11T01:05:17.478Z,29.809
2023-05-11T01:10:17.978Z,29.811
2023-05-11T01:15:17.686Z,29.812
2023-05-11T01:20:18.187Z,29.814
2023-05-11T01:25:18.368Z,29.814
2023-05-11T01:30:18.102Z,29.814
2023-05-11T01:35:17.578Z,29.814
2023-05-11T01:40:18.345Z,29.815
2023-05-11T01:45:19.379Z,29.816
2023-05-11T01:50:17.841Z,29.817
2023-05-11T01:55:17.791Z,29.816
2023-05-11T02:00:17.644Z,29.816
2023-05-11T02:25:17.308Z,29.818
2023-05-11T02:30:17.611Z,29.817
2023-05-11T02:35:17.043Z,29.819
2023-05-11T02:40:18.800Z,29.821
2023-05-11T02:45:17.404Z,29.822
2023-05-11T02:50:17.280Z,29.823
2023-05-11T02:55:17.239Z,29.824
2023-05-11T03:00:17.449Z,29.825
2023-05-11T03:05:17.155Z,29.826
2023-05-11T03:10:17.440Z,29.825
2023-05-11T03:15:17.090Z,29.824
2023-05-11T03:20:17.494Z,29.828
2023-05-11T03:25:17.341Z,29.828
2023-05-11T03:30:17.578Z,29.827
2023-05-11T03:35:17.178Z,29.828
2023-05-11T03:40:17.415Z,29.829
2023-05-11T03:45:18.054Z,29.828
2023-05-11T03:50:17.483Z,29.827
2023-05-11T03:55:17.527Z,29.827
2023-05-11T04:00:16.903Z,29.828
2023-05-11T04:05:16.477Z,29.829
2023-05-11T04:10:16.524Z,29.831
2023-05-11T04:15:16.325Z,29.832
2023-05-11T04:20:16.508Z,29.832
2023-05-11T04:25:16.300Z,29.832
2023-05-11T04:30:16.348Z,29.830
2023-05-11T04:35:16.358Z,29.830
2023-05-11T04:40:17.211Z,29.828
2023-05-11T04:45:16.377Z,29.826
2023-05-11T04:50:16.459Z,29.826
2023-05-11T04:55:16.361Z,29.826
2023-05-11T05:00:16.599Z,29.825
2023-05-11T05:05:16.677Z,29.823
2023-05-11T05:10:17.535Z,29.821
2023-05-11T05:15:16.363Z,29.820
2023-05-11T05:20:16.568Z,29.818
2023-05-11T05:25:16.506Z,29.819
2023-05-11T05:30:16.816Z,29.819
2023-05-11T05:35:16.485Z,29.820
2023-05-11T05:40:16.791Z,29.820
2023-05-11T05:45:17.519Z,29.819
2023-05-11T05:50:16.875Z,29.818
2023-05-11T05:55:16.533Z,29.816
2023-05-11T06:00:16.657Z,29.814
2023-05-11T06:05:16.633Z,29.814
2023-05-11T06:10:16.839Z,29.816
2023-05-11T06:15:17.002Z,29.815
2023-05-11T06:20:16.705Z,29.816
2023-05-11T06:25:16.805Z,29.816
2023-05-11T06:30:16.748Z,29.815
2023-05-11T06:35:16.735Z,29.815
2023-05-11T06:40:16.891Z,29.813
2023-05-11T06:45:16.631Z,29.812
2023-05-11T06:50:17.536Z,29.812
2023-05-11T06:55:16.738Z,29.812
2023-05-11T07:00:17.006Z,29.811
2023-05-11T07:05:16.964Z,29.811
2023-05-11T07:10:17.035Z,29.812
2023-05-11T07:15:16.635Z,29.811
2023-05-11T07:20:17.016Z,29.810
2023-05-11T07:25:17.168Z,29.813
2023-05-11T07:30:18.584Z,29.817
2023-05-11T07:35:16.957Z,29.816
2023-05-11T07:40:19.084Z,29.814
2023-05-11T07:45:17.525Z,29.815
2023-05-11T07:50:17.218Z,29.817
2023-05-11T07:55:17.264Z,29.821
2023-05-11T08:00:17.132Z,29.820
2023-05-11T08:05:16.926Z,29.821
2023-05-11T08:10:17.081Z,29.822
2023-05-11T08:15:16.967Z,29.823
2023-05-11T08:20:16.785Z,29.824
2023-05-11T08:25:17.113Z,29.825
2023-05-11T08:30:16.845Z,29.825
2023-05-11T08:35:17.443Z,29.822
2023-05-11T08:40:16.931Z,29.821
2023-05-11T08:45:17.132Z,29.823
2023-05-11T08:50:16.893Z,29.823
2023-05-11T08:55:17.595Z,29.822
2023-05-11T09:00:16.924Z,29.824
2023-05-11T09:05:17.511Z,29.822
2023-05-11T09:10:17.255Z,29.822
2023-05-11T09:15:17.184Z,29.823
2023-05-11T09:20:17.152Z,29.823
2023-05-11T09:25:17.257Z,29.822
2023-05-11T09:30:25.622Z,29.823
2023-05-11T09:35:17.312Z,29.823
2023-05-11T09:40:26.853Z,29.823
2023-05-11T09:45:19.291Z,29.827
2023-05-11T09:50:17.109Z,29.827
2023-05-11T09:55:17.269Z,29.828
2023-05-11T10:00:17.244Z,29.831
2023-05-11T10:05:18.256Z,29.831
2023-05-11T10:10:17.523Z,29.833
2023-05-11T10:15:17.122Z,29.834
2023-05-11T10:20:17.293Z,29.836
2023-05-11T10:25:17.389Z,29.832
2023-05-11T10:30:17.290Z,29.834
2023-05-11T11:35:17.503Z,29.832
2023-05-11T11:40:17.495Z,29.835
2023-05-11T11:45:18.140Z,29.839
2023-05-11T11:50:17.212Z,29.842
2023-05-11T11:55:17.513Z,29.845
2023-05-11T12:00:17.405Z,29.846
2023-05-11T12:05:17.646Z,29.848
2023-05-11T12:10:17.510Z,29.848
2023-05-11T12:15:20.561Z,29.849
2023-05-11T12:20:17.280Z,29.850
2023-05-11T12:25:18.361Z,29.850
2023-05-11T12:30:17.261Z,29.848
2023-05-11T12:35:17.908Z,29.850
2023-05-11T12:40:17.499Z,29.850
2023-05-11T12:45:17.732Z,29.851
2023-05-11T12:50:17.614Z,29.851
2023-05-11T12:55:17.806Z,29.853
2023-05-11T13:00:18.535Z,29.854
2023-05-11T13:05:17.569Z,29.851
2023-05-11T13:10:17.737Z,29.851
2023-05-11T13:15:18.278Z,29.849
2023-05-11T13:20:17.442Z,29.851
2023-05-11T13:25:17.871Z,29.852
2023-05-11T13:30:17.501Z,29.850
2023-05-11T13:35:17.692Z,29.851
2023-05-11T13:40:17.591Z,29.851
2023-05-11T13:45:19.198Z,29.852
2023-05-11T13:50:17.659Z,29.852
2023-05-11T13:55:18.373Z,29.852
2023-05-11T14:00:17.557Z,29.853
2023-05-11T14:05:17.942Z,29.851
2023-05-11T14:10:17.932Z,29.851
2023-05-11T14:15:17.818Z,29.851
2023-05-11T14:20:17.793Z,29.849
2023-05-11T14:25:17.918Z,29.848
2023-05-11T14:30:17.593Z,29.849
2023-05-11T14:35:17.870Z,29.847
2023-05-11T14:40:17.740Z,29.848
2023-05-11T14:45:17.879Z,29.847
2023-05-11T14:50:17.534Z,29.847
2023-05-11T14:55:18.312Z,29.847
2023-05-11T15:00:17.653Z,29.844
2023-05-11T15:05:18.228Z,29.844
2023-05-11T15:10:18.177Z,29.842
2023-05-11T15:15:18.101Z,29.843
2023-05-11T15:20:17.660Z,29.843
2023-05-11T15:25:18.052Z,29.840
2023-05-11T15:30:17.847Z,29.839
2023-05-11T15:35:17.916Z,29.837
2023-05-11T15:40:17.870Z,29.838
2023-05-11T15:45:19.005Z,29.837
2023-05-11T15:50:18.001Z,29.835
2023-05-11T15:55:17.761Z,29.835
2023-05-11T16:00:18.046Z,29.832
2023-05-11T16:05:18.212Z,29.830
2023-05-11T16:10:17.975Z,29.828
2023-05-11T16:15:18.105Z,29.826
2023-05-11T16:20:18.500Z,29.825
2023-05-11T16:25:18.518Z,29.822
2023-05-11T16:30:23.470Z,29.821
2023-05-11T16:35:17.857Z,29.821
2023-05-11T16:40:18.651Z,29.818
2023-05-11T16:45:17.935Z,29.817
2023-05-11T16:50:18.531Z,29.816
2023-05-11T16:55:18.127Z,29.814
2023-05-11T17:00:18.422Z,29.812
2023-05-11T17:05:18.159Z,29.810
2023-05-11T17:10:18.347Z,29.809
2023-05-11T17:15:18.232Z,29.808
2023-05-11T17:20:18.263Z,29.805
2023-05-11T17:25:18.299Z,29.804
2023-05-11T17:30:18.339Z,29.804
2023-05-11T17:35:17.977Z,29.803
2023-05-11T17:40:19.022Z,29.800
2023-05-11T17:45:19.689Z,29.798
2023-05-11T17:50:18.024Z,29.798
2023-05-11T17:55:18.378Z,29.796
2023-05-11T18:00:18.276Z,29.792
2023-05-11T18:05:18.093Z,29.791
2023-05-11T18:10:18.493Z,29.790
2023-05-11T18:15:18.045Z,29.788
2023-05-11T18:20:18.573Z,29.787
2023-05-11T18:25:18.146Z,29.785
2023-05-11T18:30:18.346Z,29.783
2023-05-11T18:35:18.272Z,29.779
2023-05-11T18:40:18.592Z,29.777
2023-05-11T18:45:18.155Z,29.779
2023-05-11T18:50:18.395Z,29.779
2023-05-11T18:55:18.889Z,29.778
2023-05-11T19:00:18.621Z,29.776
2023-05-11T19:05:16.305Z,29.777
2023-05-11T19:10:16.702Z,29.775
2023-05-11T19:15:16.400Z,29.771
2023-05-11T19:20:16.346Z,29.772
2023-05-11T19:25:16.450Z,29.770
2023-05-11T19:30:16.358Z,29.768
2023-05-11T19:35:16.462Z,29.764
2023-05-11T19:40:43.808Z,29.767
2023-05-11T19:45:16.870Z,29.767
2023-05-11T19:50:16.434Z,29.768
2023-05-11T19:55:16.413Z,29.764
2023-05-11T20:00:16.642Z,29.763
2023-05-11T20:05:16.306Z,29.765
2023-05-11T20:10:17.068Z,29.765
2023-05-11T20:15:16.401Z,29.764
2023-05-11T20:20:16.607Z,29.769
2023-05-11T20:25:18.882Z,29.769
2023-05-11T20:30:16.425Z,29.780
2023-05-11T20:35:16.627Z,29.792
2023-05-11T20:40:16.501Z,29.816
2023-05-11T20:45:16.903Z,29.825
2023-05-11T20:50:16.652Z,29.823
2023-05-11T20:55:16.691Z,29.825
2023-05-11T21:00:16.510Z,29.820
2023-05-11T21:05:16.491Z,29.797
2023-05-11T21:10:16.964Z,29.786
2023-05-11T21:15:16.506Z,29.786
2023-05-11T21:20:16.509Z,29.787
2023-05-11T21:25:17.106Z,29.787
2023-05-11T21:30:16.586Z,29.787
2023-05-11T21:35:16.478Z,29.786
2023-05-11T21:40:16.763Z,29.786
2023-05-11T21:45:17.314Z,29.784
2023-05-11T21:50:16.594Z,29.783
2023-05-11T21:55:17.034Z,29.784
2023-05-11T22:00:16.588Z,29.784
2023-05-11T22:05:16.530Z,29.783
2023-05-11T22:10:16.665Z,29.783
2023-05-11T22:15:16.583Z,29.782
2023-05-11T22:20:16.921Z,29.781
2023-05-11T22:25:16.689Z,29.783
2023-05-11T22:30:17.132Z,29.781
2023-05-11T22:35:16.864Z,29.780
2023-05-11T22:40:17.256Z,29.781
2023-05-11T22:45:16.708Z,29.783
2023-05-11T22:50:16.879Z,29.784
2023-05-11T22:55:16.953Z,29.783
2023-05-11T23:00:16.660Z,29.785
2023-05-11T23:05:16.680Z,29.785
2023-05-11T23:10:16.976Z,29.787
2023-05-11T23:15:16.722Z,29.789
2023-05-11T23:20:17.063Z,29.790
2023-05-11T23:25:16.930Z,29.791
2023-05-11T23:30:16.875Z,29.792
2023-05-11T23:35:17.007Z,29.791
2023-05-11T23:40:17.001Z,29.793
2023-05-11T23:45:17.769Z,29.792
2023-05-11T23:50:16.730Z,29.792
2023-05-11T23:55:17.199Z,29.794
